Nearby METAR Reports

 

KSJC - San Jose, California, USA
Distance from station: NØ 14km
Opdateret: 13/05/2021 1010:0505
Mest skyet
Mest skyet
 Vind retning NV
Vind: NV 15 km/h
Temperatur: 21°C
Dugpunkt: 12°C
Fugtighed: 57%
Barometer: 1016.3 hPa
Clouds: Mest skyet
Visibility: 16 km
Cloud details: Delvist skyet 3048 m
Mest skyet 4877 m
2021/05/13 20:53 KSJC 132053Z 32008KT 10SM SCT100 BKN160 21/12 A3001 RMK AO2 SLP160 T02110117 58015
KNUQ - Moffett Nas/Mtn, California, USA
Distance from station: N 14km
Opdateret: 14/04/2021 1212:0404
NOT Current

 
2021/04/13 22:40 KNUQ 132240Z AUTO RMK AO2 PNO PWINO TSNO
 
KPAO - Palo Alto, California, USA
Distance from station: NNV 23km
Opdateret: 13/05/2021 1010:0505
Klart
Klart
 Vind retning N
Vind: N 19 km/h
Temperatur: 17°C
Dugpunkt: 11°C
Fugtighed: 68%
Barometer: 1016.9 hPa
Clouds: Klart
Visibility: 16 km
2021/05/13 20:47 KPAO 132047Z 36010KT 10SM SKC 17/11 A3003
KRHV - San Jose/Reid, California, USA
Distance from station: ØNØ 19km
Opdateret: 13/05/2021 1010:0505
Delvist skyet
Delvist skyet
 Vind retning calm
Vind: Vindstille
Temperatur: 20°C
Dugpunkt: 10°C
Fugtighed: 53%
Barometer: 1015.9 hPa
Clouds: Delvist skyet
Visibility: 16 km
Cloud details: Delvist skyet 3048 m
2021/05/13 20:50 KRHV 132050Z 00000KT 10SM SCT100 20/10 A3000
 
KOAK - Oakland, California, USA
Distance from station: NNV 50km
Opdateret: 13/05/2021 1010:0505
Mest skyet
Mest skyet
 Vind retning NV
Vind: NV 26 km/h
Temperatur: 16°C
Dugpunkt: 10°C
Fugtighed: 68%
Barometer: 1017.3 hPa
Clouds: Mest skyet
Visibility: 16 km
Cloud details: Few Clouds 305 m
Mest skyet 6096 m
2021/05/13 20:53 KOAK 132053Z 31014KT 10SM FEW010 BKN200 16/10 A3004 RMK AO2 SLP171 T01610100 58014
KSQL - San Carlos Airpo, California, USA
Distance from station: NV 34km
Opdateret: 13/05/2021 1010:0505
Delvist skyet
Delvist skyet
 Vind retning N
Vind: N 19 km/h
Temperatur: 16°C
Dugpunkt: 12°C
Fugtighed: 77%
Barometer: 1016.9 hPa
Clouds: Delvist skyet
Visibility: 16 km
Cloud details: Delvist skyet 6096 m
2021/05/13 20:47 KSQL 132047Z 36010KT 10SM SCT200 16/12 A3003
 
KSFO - San Francisco, California, USA
Distance from station: NV 49km
Opdateret: 13/05/2021 1010:0505
Mest skyet
Mest skyet
 Vind retning NV
Vind: NV 28 km/h, Vindstød: 37 km/h
Temperatur: 19°C
Dugpunkt: 9°C
Fugtighed: 52%
Barometer: 1016.3 hPa
Clouds: Mest skyet
Visibility: 16 km
Cloud details: Few Clouds 274 m
Few Clouds 914 m
Mest skyet 6096 m
2021/05/13 20:56 KSFO 132056Z 31015G20KT 10SM FEW009 FEW030 BKN200 19/09 A3001 RMK AO2 SLP162 T01890094 58015
KE16 - San Martin, California, USA
Distance from station: ØSØ 43km
Opdateret: 13/05/2021 1010:0505
Klart
Klart
 Vind retning SØ
Vind: SØ 9 km/h
Temperatur: 23°C
Dugpunkt: 9°C
Fugtighed: 41%
Barometer: 1016.6 hPa
Clouds: Klart
Visibility: 16 km
2021/05/13 20:55 KE16 132055Z AUTO 13005KT 10SM CLR 23/09 A3002 RMK AO2 PWINO PNO
 
KWVI - Watsonville, California, USA
Distance from station: SSØ 44km
Opdateret: 13/05/2021 1010:0505
Few Clouds
Few Clouds
 Vind retning VSV
Vind: VSV 17 km/h
Temperatur: 16°C
Dugpunkt: 10°C
Fugtighed: 68%
Barometer: 1018.3 hPa
Clouds: Few Clouds
Visibility: 16 km
Cloud details: Few Clouds 366 m
2021/05/13 20:53 KWVI 132053Z AUTO 25009KT 10SM FEW012 16/10 A3007 RMK AO2 SLP181 T01610100 56008
KHAF - Half Moon Bay, California, USA
Distance from station: VNV 50km
Opdateret: 13/05/2021 1010:0505
Mest skyet
Mest skyet
 Vind retning S
Vind: S 11 km/h
Temperatur: 12°C
Dugpunkt: 9°C
Fugtighed: 82%
Barometer: 1018.6 hPa
Clouds: Mest skyet
Visibility: 13 km
Cloud details: Mest skyet 213 m
2021/05/13 20:55 KHAF 132055Z AUTO 19006KT 8SM BKN007 12/09 A3008 RMK AO2
 
KHWD - Hayward, California, USA
Distance from station: N 44km
Opdateret: 13/05/2021 1010:0505
Klart
Klart
 Vind retning NNV
Vind: NNV 15 km/h
Temperatur: 19°C
Dugpunkt: 10°C
Fugtighed: 56%
Barometer: 1016.6 hPa
Clouds: Klart
Visibility: 16 km
2021/05/13 20:54 KHWD 132054Z 33008KT 10SM CLR 19/10 A3002 RMK AO2 SLP175 T01890100 58013
KLVK - Livermore, California, USA
Distance from station: NNØ 51km
Opdateret: 13/05/2021 1010:0505
Klart
Klart
 Vind retning VNV
Vind: VNV 19 km/h
Temperatur: 26°C
Dugpunkt: 7°C
Fugtighed: 30%
Barometer: 1015.2 hPa
Clouds: Klart
Visibility: 16 km
2021/05/13 20:53 KLVK 132053Z 29010KT 10SM CLR 26/07 A2998 RMK AO2 SLP148 T02560072 58016